sensor_id;sensor_type;location;lat;lon;timestamp;P1;durP1;ratioP1;P2;durP2;ratioP2
50968;SDS011;36982;51.474;7.228;2022-12-07T00:01:08;24.17;;;16.47;;
50968;SDS011;36982;51.474;7.228;2022-12-07T00:03:35;23.67;;;17.03;;
50968;SDS011;36982;51.474;7.228;2022-12-07T00:06:02;23.00;;;15.30;;
50968;SDS011;36982;51.474;7.228;2022-12-07T00:08:30;20.37;;;15.00;;
50968;SDS011;36982;51.474;7.228;2022-12-07T00:11:01;19.60;;;15.10;;
50968;SDS011;36982;51.474;7.228;2022-12-07T00:13:28;20.33;;;14.63;;
50968;SDS011;36982;51.474;7.228;2022-12-07T00:15:54;22.33;;;15.10;;
50968;SDS011;36982;51.474;7.228;2022-12-07T00:18:19;18.43;;;13.77;;
50968;SDS011;36982;51.474;7.228;2022-12-07T00:20:45;19.33;;;14.50;;
50968;SDS011;36982;51.474;7.228;2022-12-07T00:23:10;19.90;;;14.50;;
50968;SDS011;36982;51.474;7.228;2022-12-07T00:25:36;21.90;;;13.30;;
50968;SDS011;36982;51.474;7.228;2022-12-07T00:28:01;18.90;;;13.80;;
50968;SDS011;36982;51.474;7.228;2022-12-07T00:30:27;19.33;;;13.73;;
50968;SDS011;36982;51.474;7.228;2022-12-07T00:32:53;18.57;;;13.40;;
50968;SDS011;36982;51.474;7.228;2022-12-07T00:35:18;20.07;;;12.77;;
50968;SDS011;36982;51.474;7.228;2022-12-07T00:37:44;17.87;;;12.40;;
50968;SDS011;36982;51.474;7.228;2022-12-07T00:40:10;16.13;;;11.17;;
50968;SDS011;36982;51.474;7.228;2022-12-07T00:42:35;16.20;;;11.53;;
50968;SDS011;36982;51.474;7.228;2022-12-07T00:45:01;16.50;;;12.27;;
50968;SDS011;36982;51.474;7.228;2022-12-07T00:47:27;18.30;;;11.97;;
50968;SDS011;36982;51.474;7.228;2022-12-07T00:49:52;14.90;;;11.30;;
50968;SDS011;36982;51.474;7.228;2022-12-07T00:52:18;16.90;;;12.33;;
50968;SDS011;36982;51.474;7.228;2022-12-07T00:54:43;17.03;;;12.00;;
50968;SDS011;36982;51.474;7.228;2022-12-07T00:57:09;18.03;;;12.57;;
50968;SDS011;36982;51.474;7.228;2022-12-07T00:59:35;15.83;;;12.53;;
50968;SDS011;36982;51.474;7.228;2022-12-07T01:02:00;18.43;;;12.73;;
50968;SDS011;36982;51.474;7.228;2022-12-07T01:04:26;17.27;;;12.13;;
50968;SDS011;36982;51.474;7.228;2022-12-07T01:06:51;21.30;;;12.87;;
50968;SDS011;36982;51.474;7.228;2022-12-07T01:09:17;15.93;;;12.57;;
50968;SDS011;36982;51.474;7.228;2022-12-07T01:11:43;20.77;;;14.13;;
50968;SDS011;36982;51.474;7.228;2022-12-07T01:14:08;19.87;;;14.07;;
50968;SDS011;36982;51.474;7.228;2022-12-07T01:16:34;20.00;;;14.47;;
50968;SDS011;36982;51.474;7.228;2022-12-07T01:19:00;20.60;;;15.07;;
50968;SDS011;36982;51.474;7.228;2022-12-07T01:21:28;20.00;;;15.27;;
50968;SDS011;36982;51.474;7.228;2022-12-07T01:23:56;20.27;;;14.57;;
50968;SDS011;36982;51.474;7.228;2022-12-07T01:26:23;19.20;;;14.23;;
50968;SDS011;36982;51.474;7.228;2022-12-07T01:28:50;25.33;;;16.07;;
50968;SDS011;36982;51.474;7.228;2022-12-07T01:31:18;22.03;;;15.73;;
50968;SDS011;36982;51.474;7.228;2022-12-07T01:33:46;24.63;;;16.03;;
50968;SDS011;36982;51.474;7.228;2022-12-07T01:36:15;21.70;;;15.03;;
50968;SDS011;36982;51.474;7.228;2022-12-07T01:38:46;24.20;;;15.47;;
50968;SDS011;36982;51.474;7.228;2022-12-07T01:41:13;24.73;;;17.07;;
50968;SDS011;36982;51.474;7.228;2022-12-07T01:46:44;22.00;;;16.10;;
50968;SDS011;36982;51.474;7.228;2022-12-07T01:49:20;21.73;;;16.07;;
50968;SDS011;36982;51.474;7.228;2022-12-07T01:51:46;24.03;;;16.53;;
50968;SDS011;36982;51.474;7.228;2022-12-07T01:54:14;22.67;;;16.57;;
50968;SDS011;36982;51.474;7.228;2022-12-07T01:56:42;21.90;;;15.73;;
50968;SDS011;36982;51.474;7.228;2022-12-07T01:59:14;22.20;;;16.00;;
50968;SDS011;36982;51.474;7.228;2022-12-07T02:01:41;21.37;;;15.90;;
50968;SDS011;36982;51.474;7.228;2022-12-07T02:04:07;19.90;;;15.53;;
50968;SDS011;36982;51.474;7.228;2022-12-07T02:06:33;20.97;;;15.27;;
50968;SDS011;36982;51.474;7.228;2022-12-07T02:09:00;20.43;;;14.93;;
50968;SDS011;36982;51.474;7.228;2022-12-07T02:11:25;20.83;;;14.20;;
50968;SDS011;36982;51.474;7.228;2022-12-07T02:13:51;17.93;;;13.97;;
50968;SDS011;36982;51.474;7.228;2022-12-07T02:19:30;19.63;;;13.67;;
50968;SDS011;36982;51.474;7.228;2022-12-07T02:30:46;20.93;;;13.77;;
50968;SDS011;36982;51.474;7.228;2022-12-07T02:33:25;19.83;;;13.30;;
50968;SDS011;36982;51.474;7.228;2022-12-07T02:36:25;17.13;;;12.93;;
50968;SDS011;36982;51.474;7.228;2022-12-07T02:39:00;16.60;;;13.03;;
50968;SDS011;36982;51.474;7.228;2022-12-07T02:41:35;18.83;;;13.30;;
50968;SDS011;36982;51.474;7.228;2022-12-07T02:44:07;19.80;;;12.47;;
50968;SDS011;36982;51.474;7.228;2022-12-07T02:46:42;17.20;;;11.97;;
50968;SDS011;36982;51.474;7.228;2022-12-07T02:49:11;16.50;;;12.20;;
50968;SDS011;36982;51.474;7.228;2022-12-07T02:51:41;18.13;;;12.00;;
50968;SDS011;36982;51.474;7.228;2022-12-07T02:54:12;16.53;;;11.80;;
50968;SDS011;36982;51.474;7.228;2022-12-07T03:08:04;16.20;;;10.93;;
50968;SDS011;36982;51.474;7.228;2022-12-07T03:18:20;16.23;;;10.70;;
50968;SDS011;36982;51.474;7.228;2022-12-07T03:20:49;14.67;;;10.80;;
50968;SDS011;36982;51.474;7.228;2022-12-07T03:23:17;16.00;;;10.60;;
50968;SDS011;36982;51.474;7.228;2022-12-07T03:25:49;17.97;;;12.17;;
50968;SDS011;36982;51.474;7.228;2022-12-07T03:28:20;16.40;;;11.40;;
50968;SDS011;36982;51.474;7.228;2022-12-07T03:30:52;18.67;;;12.00;;
50968;SDS011;36982;51.474;7.228;2022-12-07T03:33:26;17.50;;;11.23;;
50968;SDS011;36982;51.474;7.228;2022-12-07T03:36:00;16.20;;;11.13;;
50968;SDS011;36982;51.474;7.228;2022-12-07T03:38:33;17.50;;;11.50;;
50968;SDS011;36982;51.474;7.228;2022-12-07T03:41:19;17.40;;;10.10;;
50968;SDS011;36982;51.474;7.228;2022-12-07T03:43:49;17.23;;;10.50;;
50968;SDS011;36982;51.474;7.228;2022-12-07T03:51:40;17.83;;;10.87;;
50968;SDS011;36982;51.474;7.228;2022-12-07T03:54:36;14.00;;;9.87;;
50968;SDS011;36982;51.474;7.228;2022-12-07T03:57:09;15.50;;;10.77;;
50968;SDS011;36982;51.474;7.228;2022-12-07T03:59:37;16.23;;;10.50;;
50968;SDS011;36982;51.474;7.228;2022-12-07T04:02:05;16.83;;;10.03;;
50968;SDS011;36982;51.474;7.228;2022-12-07T04:04:32;15.03;;;10.50;;
50968;SDS011;36982;51.474;7.228;2022-12-07T04:06:58;18.30;;;10.63;;
50968;SDS011;36982;51.474;7.228;2022-12-07T04:09:24;16.60;;;10.93;;
50968;SDS011;36982;51.474;7.228;2022-12-07T04:11:50;17.13;;;10.90;;
50968;SDS011;36982;51.474;7.228;2022-12-07T04:14:16;17.83;;;11.33;;
50968;SDS011;36982;51.474;7.228;2022-12-07T04:19:18;18.30;;;11.27;;
50968;SDS011;36982;51.474;7.228;2022-12-07T04:21:45;18.03;;;11.50;;
50968;SDS011;36982;51.474;7.228;2022-12-07T04:24:12;17.47;;;11.30;;
50968;SDS011;36982;51.474;7.228;2022-12-07T04:26:39;14.80;;;10.60;;
50968;SDS011;36982;51.474;7.228;2022-12-07T04:29:05;16.23;;;10.27;;
50968;SDS011;36982;51.474;7.228;2022-12-07T04:31:30;11.93;;;9.50;;
50968;SDS011;36982;51.474;7.228;2022-12-07T04:33:56;17.00;;;10.57;;
50968;SDS011;36982;51.474;7.228;2022-12-07T04:36:21;17.60;;;10.60;;
50968;SDS011;36982;51.474;7.228;2022-12-07T04:38:47;16.93;;;10.10;;
50968;SDS011;36982;51.474;7.228;2022-12-07T04:41:13;14.30;;;9.23;;
50968;SDS011;36982;51.474;7.228;2022-12-07T04:43:38;16.50;;;10.33;;
50968;SDS011;36982;51.474;7.228;2022-12-07T04:46:04;15.60;;;10.70;;
50968;SDS011;36982;51.474;7.228;2022-12-07T04:48:30;15.47;;;9.87;;
50968;SDS011;36982;51.474;7.228;2022-12-07T04:50:56;16.13;;;10.93;;
50968;SDS011;36982;51.474;7.228;2022-12-07T04:53:21;18.03;;;10.40;;
50968;SDS011;36982;51.474;7.228;2022-12-07T04:55:47;16.03;;;9.80;;
50968;SDS011;36982;51.474;7.228;2022-12-07T04:58:13;18.57;;;10.00;;
50968;SDS011;36982;51.474;7.228;2022-12-07T05:00:39;16.80;;;10.13;;
50968;SDS011;36982;51.474;7.228;2022-12-07T05:03:05;17.47;;;9.93;;
50968;SDS011;36982;51.474;7.228;2022-12-07T05:05:31;15.07;;;9.60;;
50968;SDS011;36982;51.474;7.228;2022-12-07T05:07:57;18.07;;;10.00;;
50968;SDS011;36982;51.474;7.228;2022-12-07T05:10:22;18.27;;;9.33;;
50968;SDS011;36982;51.474;7.228;2022-12-07T05:12:48;19.23;;;9.90;;
50968;SDS011;36982;51.474;7.228;2022-12-07T05:15:14;15.97;;;9.73;;
50968;SDS011;36982;51.474;7.228;2022-12-07T05:17:40;14.40;;;10.00;;
50968;SDS011;36982;51.474;7.228;2022-12-07T05:20:06;16.30;;;10.30;;
50968;SDS011;36982;51.474;7.228;2022-12-07T05:22:33;16.10;;;10.20;;
50968;SDS011;36982;51.474;7.228;2022-12-07T05:24:58;19.37;;;10.30;;
50968;SDS011;36982;51.474;7.228;2022-12-07T05:27:24;15.00;;;9.93;;
50968;SDS011;36982;51.474;7.228;2022-12-07T05:29:50;15.17;;;9.83;;
50968;SDS011;36982;51.474;7.228;2022-12-07T05:32:16;18.90;;;10.03;;
50968;SDS011;36982;51.474;7.228;2022-12-07T05:34:42;13.80;;;10.13;;
50968;SDS011;36982;51.474;7.228;2022-12-07T05:37:08;13.23;;;9.20;;
50968;SDS011;36982;51.474;7.228;2022-12-07T05:39:33;17.90;;;9.53;;
50968;SDS011;36982;51.474;7.228;2022-12-07T05:41:59;16.67;;;10.23;;
50968;SDS011;36982;51.474;7.228;2022-12-07T05:44:36;15.30;;;9.67;;
50968;SDS011;36982;51.474;7.228;2022-12-07T05:47:02;21.73;;;9.70;;
50968;SDS011;36982;51.474;7.228;2022-12-07T05:49:28;17.83;;;10.67;;
50968;SDS011;36982;51.474;7.228;2022-12-07T05:51:54;14.80;;;9.27;;
50968;SDS011;36982;51.474;7.228;2022-12-07T05:54:19;18.13;;;9.70;;
50968;SDS011;36982;51.474;7.228;2022-12-07T05:56:45;18.93;;;10.47;;
50968;SDS011;36982;51.474;7.228;2022-12-07T05:59:11;17.23;;;9.20;;
50968;SDS011;36982;51.474;7.228;2022-12-07T06:01:56;16.13;;;9.87;;
50968;SDS011;36982;51.474;7.228;2022-12-07T06:04:28;17.77;;;9.60;;
50968;SDS011;36982;51.474;7.228;2022-12-07T06:06:55;20.30;;;10.13;;
50968;SDS011;36982;51.474;7.228;2022-12-07T06:09:22;17.37;;;10.47;;
50968;SDS011;36982;51.474;7.228;2022-12-07T06:11:48;18.50;;;10.40;;
50968;SDS011;36982;51.474;7.228;2022-12-07T06:14:32;16.13;;;10.27;;
50968;SDS011;36982;51.474;7.228;2022-12-07T06:16:58;17.50;;;10.80;;
50968;SDS011;36982;51.474;7.228;2022-12-07T06:19:24;15.17;;;10.60;;
50968;SDS011;36982;51.474;7.228;2022-12-07T06:21:50;15.57;;;9.50;;
50968;SDS011;36982;51.474;7.228;2022-12-07T06:24:16;17.67;;;10.10;;
50968;SDS011;36982;51.474;7.228;2022-12-07T06:26:42;22.57;;;10.60;;
50968;SDS011;36982;51.474;7.228;2022-12-07T06:29:08;20.23;;;9.50;;
50968;SDS011;36982;51.474;7.228;2022-12-07T06:31:35;17.60;;;10.10;;
50968;SDS011;36982;51.474;7.228;2022-12-07T06:34:02;15.07;;;9.07;;
50968;SDS011;36982;51.474;7.228;2022-12-07T06:36:29;13.90;;;9.13;;
50968;SDS011;36982;51.474;7.228;2022-12-07T06:38:55;16.50;;;9.00;;
50968;SDS011;36982;51.474;7.228;2022-12-07T06:41:21;14.50;;;8.80;;
50968;SDS011;36982;51.474;7.228;2022-12-07T06:43:47;14.97;;;8.40;;
50968;SDS011;36982;51.474;7.228;2022-12-07T06:46:13;14.10;;;8.23;;
50968;SDS011;36982;51.474;7.228;2022-12-07T06:48:39;12.37;;;8.27;;
50968;SDS011;36982;51.474;7.228;2022-12-07T06:51:05;12.73;;;7.70;;
50968;SDS011;36982;51.474;7.228;2022-12-07T06:53:31;12.73;;;7.93;;
50968;SDS011;36982;51.474;7.228;2022-12-07T06:55:56;13.10;;;8.20;;
50968;SDS011;36982;51.474;7.228;2022-12-07T06:58:22;15.10;;;7.90;;
50968;SDS011;36982;51.474;7.228;2022-12-07T07:00:48;13.67;;;7.93;;
50968;SDS011;36982;51.474;7.228;2022-12-07T07:03:17;38.90;;;9.33;;
50968;SDS011;36982;51.474;7.228;2022-12-07T07:05:43;16.40;;;7.53;;
50968;SDS011;36982;51.474;7.228;2022-12-07T07:08:09;11.30;;;7.07;;
50968;SDS011;36982;51.474;7.228;2022-12-07T07:10:35;12.70;;;7.50;;
50968;SDS011;36982;51.474;7.228;2022-12-07T07:13:01;12.77;;;7.57;;
50968;SDS011;36982;51.474;7.228;2022-12-07T07:15:26;12.50;;;8.00;;
50968;SDS011;36982;51.474;7.228;2022-12-07T07:17:52;12.20;;;7.37;;
50968;SDS011;36982;51.474;7.228;2022-12-07T07:20:18;10.93;;;7.53;;
50968;SDS011;36982;51.474;7.228;2022-12-07T07:22:43;14.40;;;6.77;;
50968;SDS011;36982;51.474;7.228;2022-12-07T07:25:09;11.13;;;6.70;;
50968;SDS011;36982;51.474;7.228;2022-12-07T07:27:34;11.73;;;6.87;;
50968;SDS011;36982;51.474;7.228;2022-12-07T07:30:00;14.30;;;7.47;;
50968;SDS011;36982;51.474;7.228;2022-12-07T07:32:26;11.57;;;6.63;;
50968;SDS011;36982;51.474;7.228;2022-12-07T07:34:51;12.33;;;7.77;;
50968;SDS011;36982;51.474;7.228;2022-12-07T07:37:17;17.33;;;6.40;;
50968;SDS011;36982;51.474;7.228;2022-12-07T07:39:42;10.17;;;5.87;;
50968;SDS011;36982;51.474;7.228;2022-12-07T07:42:08;10.10;;;6.07;;
50968;SDS011;36982;51.474;7.228;2022-12-07T07:44:34;10.30;;;6.37;;
50968;SDS011;36982;51.474;7.228;2022-12-07T07:47:00;14.07;;;6.50;;
50968;SDS011;36982;51.474;7.228;2022-12-07T07:49:26;12.40;;;6.50;;
50968;SDS011;36982;51.474;7.228;2022-12-07T07:51:51;11.80;;;6.80;;
50968;SDS011;36982;51.474;7.228;2022-12-07T07:54:17;10.37;;;6.27;;
50968;SDS011;36982;51.474;7.228;2022-12-07T07:56:42;13.33;;;6.60;;
50968;SDS011;36982;51.474;7.228;2022-12-07T07:59:08;12.27;;;6.67;;
50968;SDS011;36982;51.474;7.228;2022-12-07T08:01:34;11.87;;;6.67;;
50968;SDS011;36982;51.474;7.228;2022-12-07T08:03:59;13.03;;;6.63;;
50968;SDS011;36982;51.474;7.228;2022-12-07T08:06:25;12.83;;;6.67;;
50968;SDS011;36982;51.474;7.228;2022-12-07T08:08:51;10.03;;;6.47;;
50968;SDS011;36982;51.474;7.228;2022-12-07T08:11:17;13.33;;;6.73;;
50968;SDS011;36982;51.474;7.228;2022-12-07T08:13:44;9.60;;;6.63;;
50968;SDS011;36982;51.474;7.228;2022-12-07T08:16:11;15.63;;;6.93;;
50968;SDS011;36982;51.474;7.228;2022-12-07T08:18:37;10.77;;;6.50;;
50968;SDS011;36982;51.474;7.228;2022-12-07T08:21:05;10.67;;;6.60;;
50968;SDS011;36982;51.474;7.228;2022-12-07T08:23:31;12.13;;;6.93;;
50968;SDS011;36982;51.474;7.228;2022-12-07T08:26:02;12.00;;;7.03;;
50968;SDS011;36982;51.474;7.228;2022-12-07T08:28:29;15.07;;;7.53;;
50968;SDS011;36982;51.474;7.228;2022-12-07T08:31:01;11.77;;;6.93;;
50968;SDS011;36982;51.474;7.228;2022-12-07T08:33:32;11.17;;;6.80;;
50968;SDS011;36982;51.474;7.228;2022-12-07T08:36:02;12.83;;;6.90;;
50968;SDS011;36982;51.474;7.228;2022-12-07T08:38:29;13.83;;;6.80;;
50968;SDS011;36982;51.474;7.228;2022-12-07T08:40:58;11.90;;;7.20;;
50968;SDS011;36982;51.474;7.228;2022-12-07T08:43:24;12.87;;;7.10;;
50968;SDS011;36982;51.474;7.228;2022-12-07T08:45:52;9.90;;;6.03;;
50968;SDS011;36982;51.474;7.228;2022-12-07T08:48:25;11.77;;;6.53;;
50968;SDS011;36982;51.474;7.228;2022-12-07T08:50:51;11.03;;;6.37;;
50968;SDS011;36982;51.474;7.228;2022-12-07T08:53:17;13.97;;;6.40;;
50968;SDS011;36982;51.474;7.228;2022-12-07T08:55:43;10.87;;;6.47;;
50968;SDS011;36982;51.474;7.228;2022-12-07T08:58:10;13.63;;;7.00;;
50968;SDS011;36982;51.474;7.228;2022-12-07T09:00:36;15.17;;;7.00;;
50968;SDS011;36982;51.474;7.228;2022-12-07T09:03:02;15.60;;;7.20;;
50968;SDS011;36982;51.474;7.228;2022-12-07T09:05:27;10.90;;;6.50;;
50968;SDS011;36982;51.474;7.228;2022-12-07T09:07:55;12.57;;;7.00;;
50968;SDS011;36982;51.474;7.228;2022-12-07T09:10:23;10.90;;;6.47;;
50968;SDS011;36982;51.474;7.228;2022-12-07T09:12:49;13.17;;;6.53;;
50968;SDS011;36982;51.474;7.228;2022-12-07T09:15:15;12.13;;;6.33;;
50968;SDS011;36982;51.474;7.228;2022-12-07T09:17:40;10.33;;;6.17;;
50968;SDS011;36982;51.474;7.228;2022-12-07T09:20:06;12.70;;;6.50;;
50968;SDS011;36982;51.474;7.228;2022-12-07T09:22:32;9.20;;;6.00;;
50968;SDS011;36982;51.474;7.228;2022-12-07T09:24:58;11.33;;;5.83;;
50968;SDS011;36982;51.474;7.228;2022-12-07T09:27:24;14.20;;;6.57;;
50968;SDS011;36982;51.474;7.228;2022-12-07T09:29:50;11.27;;;5.87;;
50968;SDS011;36982;51.474;7.228;2022-12-07T09:32:16;12.17;;;6.40;;
50968;SDS011;36982;51.474;7.228;2022-12-07T09:34:41;12.33;;;6.50;;
50968;SDS011;36982;51.474;7.228;2022-12-07T09:37:07;12.57;;;6.20;;
50968;SDS011;36982;51.474;7.228;2022-12-07T09:39:33;14.40;;;6.80;;
50968;SDS011;36982;51.474;7.228;2022-12-07T09:42:02;14.33;;;7.53;;
50968;SDS011;36982;51.474;7.228;2022-12-07T09:44:29;13.57;;;7.23;;
50968;SDS011;36982;51.474;7.228;2022-12-07T09:46:55;14.60;;;7.23;;
50968;SDS011;36982;51.474;7.228;2022-12-07T09:49:22;15.07;;;8.00;;
50968;SDS011;36982;51.474;7.228;2022-12-07T09:54:35;13.63;;;8.00;;
50968;SDS011;36982;51.474;7.228;2022-12-07T09:57:04;13.47;;;7.20;;
50968;SDS011;36982;51.474;7.228;2022-12-07T09:59:30;9.73;;;7.00;;
50968;SDS011;36982;51.474;7.228;2022-12-07T10:01:56;15.20;;;7.73;;
50968;SDS011;36982;51.474;7.228;2022-12-07T10:04:57;14.37;;;7.03;;
50968;SDS011;36982;51.474;7.228;2022-12-07T10:07:23;10.53;;;7.13;;
50968;SDS011;36982;51.474;7.228;2022-12-07T10:09:49;13.73;;;7.07;;
50968;SDS011;36982;51.474;7.228;2022-12-07T10:12:15;13.37;;;7.43;;
50968;SDS011;36982;51.474;7.228;2022-12-07T10:15:00;10.33;;;6.67;;
50968;SDS011;36982;51.474;7.228;2022-12-07T10:17:32;11.43;;;6.47;;
50968;SDS011;36982;51.474;7.228;2022-12-07T10:22:55;9.03;;;6.13;;
50968;SDS011;36982;51.474;7.228;2022-12-07T10:25:21;10.93;;;5.73;;
50968;SDS011;36982;51.474;7.228;2022-12-07T10:30:52;14.83;;;5.50;;
50968;SDS011;36982;51.474;7.228;2022-12-07T10:33:28;7.93;;;4.63;;
50968;SDS011;36982;51.474;7.228;2022-12-07T10:39:02;9.90;;;5.10;;
50968;SDS011;36982;51.474;7.228;2022-12-07T10:41:58;10.67;;;5.13;;
50968;SDS011;36982;51.474;7.228;2022-12-07T10:44:26;26.67;;;6.27;;
50968;SDS011;36982;51.474;7.228;2022-12-07T11:04:01;12.47;;;5.20;;
50968;SDS011;36982;51.474;7.228;2022-12-07T11:07:10;13.30;;;5.87;;
50968;SDS011;36982;51.474;7.228;2022-12-07T11:17:52;10.93;;;4.30;;
50968;SDS011;36982;51.474;7.228;2022-12-07T11:20:31;10.47;;;4.70;;
50968;SDS011;36982;51.474;7.228;2022-12-07T11:23:18;6.23;;;4.33;;
50968;SDS011;36982;51.474;7.228;2022-12-07T11:34:18;7.93;;;4.23;;
50968;SDS011;36982;51.474;7.228;2022-12-07T11:36:51;9.20;;;3.70;;
50968;SDS011;36982;51.474;7.228;2022-12-07T11:41:48;6.03;;;3.10;;
50968;SDS011;36982;51.474;7.228;2022-12-07T11:44:24;6.50;;;3.20;;
50968;SDS011;36982;51.474;7.228;2022-12-07T11:47:07;5.13;;;3.00;;
50968;SDS011;36982;51.474;7.228;2022-12-07T11:52:19;6.93;;;2.73;;
50968;SDS011;36982;51.474;7.228;2022-12-07T11:55:00;5.27;;;2.60;;
50968;SDS011;36982;51.474;7.228;2022-12-07T11:57:37;5.57;;;2.67;;
50968;SDS011;36982;51.474;7.228;2022-12-07T12:00:14;8.23;;;3.70;;
50968;SDS011;36982;51.474;7.228;2022-12-07T12:05:22;6.97;;;2.10;;
50968;SDS011;36982;51.474;7.228;2022-12-07T12:10:54;6.63;;;2.53;;
50968;SDS011;36982;51.474;7.228;2022-12-07T12:19:25;7.43;;;2.70;;
50968;SDS011;36982;51.474;7.228;2022-12-07T12:22:17;7.90;;;2.57;;
50968;SDS011;36982;51.474;7.228;2022-12-07T12:24:47;4.70;;;1.90;;
50968;SDS011;36982;51.474;7.228;2022-12-07T12:27:26;5.37;;;2.00;;
50968;SDS011;36982;51.474;7.228;2022-12-07T12:29:57;4.80;;;1.93;;
50968;SDS011;36982;51.474;7.228;2022-12-07T12:32:37;9.17;;;2.20;;
50968;SDS011;36982;51.474;7.228;2022-12-07T12:38:21;4.83;;;2.13;;
50968;SDS011;36982;51.474;7.228;2022-12-07T12:40:56;5.37;;;2.07;;
50968;SDS011;36982;51.474;7.228;2022-12-07T12:57:33;5.27;;;1.73;;
50968;SDS011;36982;51.474;7.228;2022-12-07T13:00:00;9.57;;;2.20;;
50968;SDS011;36982;51.474;7.228;2022-12-07T13:03:41;4.83;;;1.80;;
50968;SDS011;36982;51.474;7.228;2022-12-07T13:05:47;6.47;;;1.70;;
50968;SDS011;36982;51.474;7.228;2022-12-07T13:08:15;5.00;;;1.60;;
50968;SDS011;36982;51.474;7.228;2022-12-07T13:10:45;4.17;;;1.90;;
50968;SDS011;36982;51.474;7.228;2022-12-07T13:13:28;7.97;;;2.40;;
50968;SDS011;36982;51.474;7.228;2022-12-07T13:18:40;6.17;;;2.50;;
50968;SDS011;36982;51.474;7.228;2022-12-07T13:28:48;8.10;;;4.10;;
50968;SDS011;36982;51.474;7.228;2022-12-07T13:31:34;8.77;;;3.40;;
50968;SDS011;36982;51.474;7.228;2022-12-07T13:34:00;10.93;;;3.87;;
50968;SDS011;36982;51.474;7.228;2022-12-07T13:36:36;12.20;;;4.57;;
50968;SDS011;36982;51.474;7.228;2022-12-07T13:39:25;9.57;;;4.73;;
50968;SDS011;36982;51.474;7.228;2022-12-07T13:41:54;7.57;;;4.30;;
50968;SDS011;36982;51.474;7.228;2022-12-07T13:44:26;7.73;;;4.10;;
50968;SDS011;36982;51.474;7.228;2022-12-07T13:47:06;14.10;;;4.60;;
50968;SDS011;36982;51.474;7.228;2022-12-07T13:49:55;13.30;;;5.20;;
50968;SDS011;36982;51.474;7.228;2022-12-07T13:52:22;12.37;;;5.30;;
50968;SDS011;36982;51.474;7.228;2022-12-07T13:57:26;12.97;;;5.87;;
50968;SDS011;36982;51.474;7.228;2022-12-07T13:59:54;11.80;;;5.10;;
50968;SDS011;36982;51.474;7.228;2022-12-07T14:02:21;12.20;;;5.13;;
50968;SDS011;36982;51.474;7.228;2022-12-07T14:05:22;7.33;;;4.17;;
50968;SDS011;36982;51.474;7.228;2022-12-07T14:08:03;8.50;;;2.53;;
50968;SDS011;36982;51.474;7.228;2022-12-07T14:10:30;8.53;;;1.93;;
50968;SDS011;36982;51.474;7.228;2022-12-07T14:13:01;3.27;;;1.10;;
50968;SDS011;36982;51.474;7.228;2022-12-07T14:15:29;2.57;;;1.43;;
50968;SDS011;36982;51.474;7.228;2022-12-07T14:17:58;3.20;;;1.27;;
50968;SDS011;36982;51.474;7.228;2022-12-07T14:20:31;3.33;;;1.23;;
50968;SDS011;36982;51.474;7.228;2022-12-07T14:23:02;2.13;;;1.37;;
50968;SDS011;36982;51.474;7.228;2022-12-07T14:25:48;8.03;;;1.57;;
50968;SDS011;36982;51.474;7.228;2022-12-07T14:28:34;1.73;;;1.33;;
50968;SDS011;36982;51.474;7.228;2022-12-07T14:31:02;4.30;;;1.67;;
50968;SDS011;36982;51.474;7.228;2022-12-07T14:33:28;5.87;;;1.70;;
50968;SDS011;36982;51.474;7.228;2022-12-07T14:35:54;3.10;;;1.90;;
50968;SDS011;36982;51.474;7.228;2022-12-07T14:38:24;3.43;;;1.70;;
50968;SDS011;36982;51.474;7.228;2022-12-07T14:40:51;7.07;;;2.07;;
50968;SDS011;36982;51.474;7.228;2022-12-07T14:43:17;5.27;;;2.00;;
50968;SDS011;36982;51.474;7.228;2022-12-07T14:45:44;7.03;;;2.17;;
50968;SDS011;36982;51.474;7.228;2022-12-07T14:48:14;3.90;;;2.13;;
50968;SDS011;36982;51.474;7.228;2022-12-07T14:50:44;6.60;;;3.10;;
50968;SDS011;36982;51.474;7.228;2022-12-07T14:53:15;7.60;;;2.73;;
50968;SDS011;36982;51.474;7.228;2022-12-07T14:55:43;4.50;;;2.40;;
50968;SDS011;36982;51.474;7.228;2022-12-07T14:58:13;7.00;;;2.90;;
50968;SDS011;36982;51.474;7.228;2022-12-07T15:00:39;6.70;;;2.70;;
50968;SDS011;36982;51.474;7.228;2022-12-07T15:03:05;7.33;;;2.60;;
50968;SDS011;36982;51.474;7.228;2022-12-07T15:05:30;7.10;;;2.57;;
50968;SDS011;36982;51.474;7.228;2022-12-07T15:07:57;6.33;;;2.70;;
50968;SDS011;36982;51.474;7.228;2022-12-07T15:10:24;6.73;;;2.97;;
50968;SDS011;36982;51.474;7.228;2022-12-07T15:12:56;6.83;;;3.00;;
50968;SDS011;36982;51.474;7.228;2022-12-07T15:15:46;7.80;;;3.23;;
50968;SDS011;36982;51.474;7.228;2022-12-07T15:18:12;5.80;;;3.37;;
50968;SDS011;36982;51.474;7.228;2022-12-07T15:20:38;7.03;;;3.37;;
50968;SDS011;36982;51.474;7.228;2022-12-07T15:23:04;10.90;;;4.33;;
50968;SDS011;36982;51.474;7.228;2022-12-07T15:25:30;6.87;;;4.00;;
50968;SDS011;36982;51.474;7.228;2022-12-07T15:27:55;6.90;;;3.90;;
50968;SDS011;36982;51.474;7.228;2022-12-07T15:30:21;7.73;;;4.33;;
50968;SDS011;36982;51.474;7.228;2022-12-07T15:32:50;6.97;;;4.13;;
50968;SDS011;36982;51.474;7.228;2022-12-07T15:35:16;9.07;;;4.00;;
50968;SDS011;36982;51.474;7.228;2022-12-07T15:37:42;9.90;;;4.33;;
50968;SDS011;36982;51.474;7.228;2022-12-07T15:40:07;7.90;;;3.87;;
50968;SDS011;36982;51.474;7.228;2022-12-07T15:42:34;8.27;;;4.90;;
50968;SDS011;36982;51.474;7.228;2022-12-07T15:45:00;5.40;;;3.90;;
50968;SDS011;36982;51.474;7.228;2022-12-07T15:47:29;9.40;;;4.30;;
50968;SDS011;36982;51.474;7.228;2022-12-07T15:49:56;6.47;;;3.93;;
50968;SDS011;36982;51.474;7.228;2022-12-07T15:52:21;6.37;;;3.87;;
50968;SDS011;36982;51.474;7.228;2022-12-07T15:54:47;7.97;;;4.20;;
50968;SDS011;36982;51.474;7.228;2022-12-07T15:57:13;6.13;;;4.10;;
50968;SDS011;36982;51.474;7.228;2022-12-07T15:59:57;7.10;;;3.90;;
50968;SDS011;36982;51.474;7.228;2022-12-07T16:02:23;6.27;;;3.30;;
50968;SDS011;36982;51.474;7.228;2022-12-07T16:04:50;8.23;;;4.17;;
50968;SDS011;36982;51.474;7.228;2022-12-07T16:07:16;7.73;;;3.70;;
50968;SDS011;36982;51.474;7.228;2022-12-07T16:09:43;6.43;;;4.57;;
50968;SDS011;36982;51.474;7.228;2022-12-07T16:12:10;6.43;;;4.03;;
50968;SDS011;36982;51.474;7.228;2022-12-07T16:14:37;8.87;;;3.53;;
50968;SDS011;36982;51.474;7.228;2022-12-07T16:17:03;6.57;;;3.43;;
50968;SDS011;36982;51.474;7.228;2022-12-07T16:19:30;7.77;;;3.87;;
50968;SDS011;36982;51.474;7.228;2022-12-07T16:21:56;8.43;;;3.50;;
50968;SDS011;36982;51.474;7.228;2022-12-07T16:24:22;4.67;;;2.93;;
50968;SDS011;36982;51.474;7.228;2022-12-07T16:26:48;13.83;;;4.17;;
50968;SDS011;36982;51.474;7.228;2022-12-07T16:29:14;8.20;;;3.63;;
50968;SDS011;36982;51.474;7.228;2022-12-07T16:31:40;8.57;;;3.33;;
50968;SDS011;36982;51.474;7.228;2022-12-07T16:34:06;6.70;;;3.33;;
50968;SDS011;36982;51.474;7.228;2022-12-07T16:36:33;6.67;;;3.23;;
50968;SDS011;36982;51.474;7.228;2022-12-07T16:38:59;6.40;;;2.90;;
50968;SDS011;36982;51.474;7.228;2022-12-07T16:41:26;6.77;;;3.13;;
50968;SDS011;36982;51.474;7.228;2022-12-07T16:43:51;6.40;;;3.13;;
50968;SDS011;36982;51.474;7.228;2022-12-07T16:46:17;7.20;;;3.13;;
50968;SDS011;36982;51.474;7.228;2022-12-07T16:48:43;6.70;;;3.00;;
50968;SDS011;36982;51.474;7.228;2022-12-07T16:51:10;4.60;;;2.97;;
50968;SDS011;36982;51.474;7.228;2022-12-07T16:53:38;6.57;;;3.23;;
50968;SDS011;36982;51.474;7.228;2022-12-07T16:56:11;10.73;;;3.43;;
50968;SDS011;36982;51.474;7.228;2022-12-07T16:58:39;7.93;;;3.20;;